Time;durP1;ratioP1;P1;durP2;ratioP2;P2;SDS_P1;SDS_P2;PMS_P1;PMS_P2;Temp;Humidity;BMP_temperature;BMP_pressure;BME280_temperature;BME280_humidity;BME280_pressure;Samples;Min_cycle;Max_cycle;Signal;HPM_P1;HPM_P2
2023/08/29 00:02:56;;;;;;;;;;;21.80;62.90;;;;;;10232314;28;94517;-50
2023/08/29 00:07:58;;;;;;;;;;;21.80;62.80;;;;;;10225033;28;94515;-47
2023/08/29 00:13:00;;;;;;;;;;;21.70;62.90;;;;;;10234958;28;94882;-48
2023/08/29 00:18:02;;;;;;;;;;;21.70;62.90;;;;;;10211961;28;94502;-50
2023/08/29 00:23:09;;;;;;;;;;;21.70;62.90;;;;;;10217327;28;113677;-46
2023/08/29 00:28:11;;;;;;;;;;;21.70;62.90;;;;;;10232293;28;94764;-46
2023/08/29 00:33:14;;;;;;;;;;;21.70;62.80;;;;;;10205380;28;93183;-47
2023/08/29 00:38:16;;;;;;;;;;;21.70;62.80;;;;;;10218569;28;93543;-49
2023/08/29 00:43:19;;;;;;;;;;;21.70;62.70;;;;;;10222737;28;93593;-50
2023/08/29 00:48:21;;;;;;;;;;;21.70;62.70;;;;;;10209226;28;95797;-46
2023/08/29 00:53:23;;;;;;;;;;;21.70;62.70;;;;;;10217102;28;94690;-49
2023/08/29 00:58:25;;;;;;;;;;;21.70;62.70;;;;;;10224808;28;93890;-47
2023/08/29 01:03:26;;;;;;;;;;;21.70;62.60;;;;;;10233431;28;93426;-45
2023/08/29 01:08:28;;;;;;;;;;;21.70;62.60;;;;;;10236266;28;93887;-45
2023/08/29 01:13:38;;;;;;;;;;;21.70;62.60;;;;;;10210550;28;94435;-45
2023/08/29 01:18:41;;;;;;;;;;;21.70;62.50;;;;;;10232953;28;94509;-46
2023/08/29 01:23:44;;;;;;;;;;;21.70;62.50;;;;;;10199913;28;94769;-50
2023/08/29 01:28:47;;;;;;;;;;;21.70;62.40;;;;;;10214112;28;93367;-46
2023/08/29 01:33:49;;;;;;;;;;;21.70;62.30;;;;;;10233152;28;93701;-48
2023/08/29 01:38:51;;;;;;;;;;;21.70;62.30;;;;;;10201258;28;95741;-47
2023/08/29 01:43:52;;;;;;;;;;;21.70;62.30;;;;;;10214489;28;94419;-48
2023/08/29 01:48:56;;;;;;;;;;;21.70;62.30;;;;;;10228612;28;94543;-44
2023/08/29 01:53:58;;;;;;;;;;;21.70;62.20;;;;;;10233800;28;94008;-46
2023/08/29 01:58:59;;;;;;;;;;;21.70;62.20;;;;;;10216319;28;94554;-48
2023/08/29 02:04:01;;;;;;;;;;;21.70;62.10;;;;;;10232368;28;96074;-50
2023/08/29 02:09:03;;;;;;;;;;;21.70;62.10;;;;;;10223780;28;94047;-49
2023/08/29 02:14:05;;;;;;;;;;;21.70;62.10;;;;;;10232154;28;93406;-47
2023/08/29 02:19:07;;;;;;;;;;;21.70;62.00;;;;;;10230460;28;94296;-45
2023/08/29 02:24:09;;;;;;;;;;;21.70;62.00;;;;;;10211405;28;93792;-48
2023/08/29 02:29:10;;;;;;;;;;;21.70;61.90;;;;;;10223619;28;96792;-49
2023/08/29 02:34:12;;;;;;;;;;;21.70;62.00;;;;;;10227788;28;94619;-49
2023/08/29 02:39:15;;;;;;;;;;;21.70;62.80;;;;;;10221860;28;94299;-48
2023/08/29 02:44:17;;;;;;;;;;;21.70;61.90;;;;;;10199352;28;97091;-46
2023/08/29 02:49:19;;;;;;;;;;;21.70;61.80;;;;;;10228896;28;93801;-46
2023/08/29 02:54:20;;;;;;;;;;;21.70;61.70;;;;;;10193506;28;92643;-47
2023/08/29 02:59:22;;;;;;;;;;;21.70;61.60;;;;;;10224902;28;93609;-46
2023/08/29 03:04:24;;;;;;;;;;;21.70;61.60;;;;;;10220792;28;92691;-49
2023/08/29 03:09:28;;;;;;;;;;;21.70;61.60;;;;;;10238110;28;94477;-46
2023/08/29 03:14:30;;;;;;;;;;;21.70;61.40;;;;;;10237128;28;94394;-46
2023/08/29 03:19:32;;;;;;;;;;;21.60;61.30;;;;;;10235847;28;96929;-47
2023/08/29 03:24:33;;;;;;;;;;;21.60;61.40;;;;;;10235828;28;93405;-44
2023/08/29 03:29:35;;;;;;;;;;;21.60;61.30;;;;;;10221091;28;93388;-45
2023/08/29 03:34:37;;;;;;;;;;;21.60;61.20;;;;;;10230232;28;93531;-47
2023/08/29 03:39:39;;;;;;;;;;;21.60;61.20;;;;;;10230054;28;94569;-50
2023/08/29 03:44:41;;;;;;;;;;;21.60;61.10;;;;;;10218055;28;92943;-47
2023/08/29 03:49:43;;;;;;;;;;;21.60;61.10;;;;;;10235768;28;96263;-47
2023/08/29 03:54:45;;;;;;;;;;;21.60;61.20;;;;;;10221000;28;93344;-48
2023/08/29 03:59:47;;;;;;;;;;;21.50;61.00;;;;;;10235541;28;93379;-49
2023/08/29 04:05:09;;;;;;;;;;;21.50;61.10;;;;;;10211370;28;94298;-46
2023/08/29 04:10:12;;;;;;;;;;;21.50;61.00;;;;;;10233191;28;96825;-49
2023/08/29 04:15:14;;;;;;;;;;;21.50;60.90;;;;;;10218612;28;94327;-46
2023/08/29 04:20:16;;;;;;;;;;;21.50;60.90;;;;;;10235426;28;93454;-47
2023/08/29 04:25:19;;;;;;;;;;;21.50;60.80;;;;;;10234228;28;94453;-47
2023/08/29 04:30:20;;;;;;;;;;;21.40;60.80;;;;;;10208589;28;94279;-45
2023/08/29 04:35:22;;;;;;;;;;;21.40;60.90;;;;;;10232347;28;95270;-47
2023/08/29 04:40:24;;;;;;;;;;;21.40;60.80;;;;;;10226142;28;94565;-47
2023/08/29 04:50:48;;;;;;;;;;;21.40;60.70;;;;;;10516238;22;95530;-51
2023/08/29 04:55:57;;;;;;;;;;;21.40;60.90;;;;;;10203964;28;94112;-48
2023/08/29 05:00:59;;;;;;;;;;;21.40;60.80;;;;;;10178984;28;95759;-46
2023/08/29 05:06:00;;;;;;;;;;;21.40;60.80;;;;;;10198637;28;94662;-46
2023/08/29 05:11:02;;;;;;;;;;;21.30;60.70;;;;;;10199368;28;94449;-49
2023/08/29 05:16:05;;;;;;;;;;;21.30;60.80;;;;;;10191903;28;93877;-48
2023/08/29 05:21:07;;;;;;;;;;;21.40;61.90;;;;;;10192019;28;94483;-47
2023/08/29 05:26:09;;;;;;;;;;;21.50;61.70;;;;;;10188985;28;94000;-47
2023/08/29 05:31:13;;;;;;;;;;;21.50;61.40;;;;;;10191608;28;93566;-47
2023/08/29 05:36:15;;;;;;;;;;;21.50;61.60;;;;;;10195621;28;93773;-46
2023/08/29 05:41:17;;;;;;;;;;;21.50;61.70;;;;;;10190721;28;94408;-45
2023/08/29 05:46:19;;;;;;;;;;;21.40;61.60;;;;;;10199040;28;93467;-49
2023/08/29 05:51:20;;;;;;;;;;;21.40;61.60;;;;;;10190197;28;95624;-46
2023/08/29 05:56:22;;;;;;;;;;;21.40;61.50;;;;;;10202266;28;94873;-47
2023/08/29 06:01:27;;;;;;;;;;;21.40;61.70;;;;;;10195159;28;93512;-48
2023/08/29 06:06:28;;;;;;;;;;;21.40;62.20;;;;;;10194763;28;94158;-46
2023/08/29 06:11:30;;;;;;;;;;;21.40;62.60;;;;;;10194289;28;94395;-51
2023/08/29 06:16:32;;;;;;;;;;;21.40;63.20;;;;;;10195284;28;94806;-48
2023/08/29 06:21:33;;;;;;;;;;;21.40;63.00;;;;;;10196204;28;94902;-51
2023/08/29 06:26:37;;;;;;;;;;;21.40;63.80;;;;;;10201657;28;92666;-46
2023/08/29 06:31:39;;;;;;;;;;;21.30;84.40;;;;;;10196607;28;94874;-52
2023/08/29 06:36:41;;;;;;;;;;;21.30;69.50;;;;;;10201242;28;94665;-48
2023/08/29 06:41:43;;;;;;;;;;;21.30;67.50;;;;;;10199612;28;98226;-50
2023/08/29 06:46:45;;;;;;;;;;;21.30;67.10;;;;;;10202127;28;93465;-51
2023/08/29 06:51:47;;;;;;;;;;;21.40;67.50;;;;;;10208451;28;94761;-50
2023/08/29 06:56:52;;;;;;;;;;;21.40;68.10;;;;;;10207584;28;93593;-49
2023/08/29 07:01:53;;;;;;;;;;;21.40;67.70;;;;;;10200588;28;93718;-50
2023/08/29 07:06:55;;;;;;;;;;;21.40;67.50;;;;;;10201112;28;93384;-47
2023/08/29 07:11:57;;;;;;;;;;;21.40;67.60;;;;;;10200182;28;93674;-51
2023/08/29 07:16:59;;;;;;;;;;;21.40;67.10;;;;;;10201075;28;92733;-51
2023/08/29 07:22:11;;;;;;;;;;;21.50;66.90;;;;;;10200443;28;94417;-51
2023/08/29 07:27:25;;;;;;;;;;;21.40;66.60;;;;;;10199955;28;94540;-52
2023/08/29 07:32:28;;;;;;;;;;;21.50;67.60;;;;;;10200853;28;96780;-48
2023/08/29 07:37:30;;;;;;;;;;;21.50;67.50;;;;;;10199790;28;94000;-48
2023/08/29 07:42:32;;;;;;;;;;;21.50;67.20;;;;;;10199776;28;95220;-47
2023/08/29 07:47:34;;;;;;;;;;;21.50;67.30;;;;;;10199409;28;93517;-45
2023/08/29 07:52:37;;;;;;;;;;;21.60;66.40;;;;;;10198154;28;93569;-49
2023/08/29 07:57:43;;;;;;;;;;;21.60;66.50;;;;;;10198895;28;94570;-46
2023/08/29 08:02:44;;;;;;;;;;;21.50;66.40;;;;;;10199996;28;94185;-45
2023/08/29 08:07:46;;;;;;;;;;;21.50;66.30;;;;;;10199758;28;92773;-46
2023/08/29 08:12:49;;;;;;;;;;;21.50;66.20;;;;;;10196535;28;94411;-45
2023/08/29 08:17:50;;;;;;;;;;;21.60;66.10;;;;;;10196190;28;94682;-48
2023/08/29 08:22:52;;;;;;;;;;;21.60;66.00;;;;;;10207832;28;96842;-45
2023/08/29 08:27:55;;;;;;;;;;;21.60;66.10;;;;;;10197646;28;93372;-45
2023/08/29 08:33:00;;;;;;;;;;;21.60;66.00;;;;;;10201637;28;94953;-53
2023/08/29 08:38:02;;;;;;;;;;;21.60;65.90;;;;;;10198616;28;94219;-47
2023/08/29 08:43:04;;;;;;;;;;;21.60;65.80;;;;;;10198115;28;94180;-47
2023/08/29 08:48:06;;;;;;;;;;;21.60;65.70;;;;;;10216964;28;94534;-46
2023/08/29 08:53:09;;;;;;;;;;;21.60;65.70;;;;;;10195970;28;93536;-50
2023/08/29 08:58:12;;;;;;;;;;;21.60;65.70;;;;;;10194531;28;92697;-49
2023/08/29 09:03:13;;;;;;;;;;;21.60;65.60;;;;;;10194134;28;94864;-46
2023/08/29 09:08:15;;;;;;;;;;;21.60;65.50;;;;;;10194449;28;93635;-48
2023/08/29 09:13:17;;;;;;;;;;;21.60;65.40;;;;;;10190737;28;97194;-47
2023/08/29 09:18:23;;;;;;;;;;;21.60;65.40;;;;;;10194588;28;94504;-47
2023/08/29 09:23:25;;;;;;;;;;;21.60;65.30;;;;;;10195771;28;94807;-51
2023/08/29 09:28:28;;;;;;;;;;;21.60;65.40;;;;;;10193974;28;93308;-51
2023/08/29 09:33:30;;;;;;;;;;;21.60;65.30;;;;;;10194128;28;94419;-46
2023/08/29 09:38:35;;;;;;;;;;;21.60;65.30;;;;;;10192892;28;93931;-51
2023/08/29 09:43:45;;;;;;;;;;;21.60;65.20;;;;;;10193415;28;93585;-49
2023/08/29 09:48:56;;;;;;;;;;;21.70;65.20;;;;;;10125934;28;1950832;-47
2023/08/29 09:53:58;;;;;;;;;;;21.70;65.20;;;;;;10207676;28;93093;-49
2023/08/29 09:59:01;;;;;;;;;;;21.70;65.10;;;;;;10197237;28;93175;-46
2023/08/29 10:04:05;;;;;;;;;;;21.70;65.10;;;;;;10193412;28;98164;-46
2023/08/29 10:09:06;;;;;;;;;;;21.70;65.00;;;;;;10196356;28;94441;-49
2023/08/29 10:14:09;;;;;;;;;;;21.70;65.00;;;;;;10194521;28;93467;-51
2023/08/29 10:19:11;;;;;;;;;;;21.70;65.00;;;;;;10195882;28;93602;-45
2023/08/29 10:24:13;;;;;;;;;;;21.70;65.00;;;;;;10196202;28;94774;-46
2023/08/29 10:29:16;;;;;;;;;;;21.70;65.00;;;;;;10197147;28;94633;-50
2023/08/29 10:34:19;;;;;;;;;;;21.70;65.10;;;;;;10194865;28;94679;-46
2023/08/29 10:39:21;;;;;;;;;;;21.60;65.10;;;;;;10194172;28;92831;-50
2023/08/29 10:44:29;;;;;;;;;;;21.60;65.10;;;;;;10195709;28;94648;-46
2023/08/29 10:49:40;;;;;;;;;;;21.60;65.30;;;;;;10195172;28;94616;-48
2023/08/29 10:54:41;;;;;;;;;;;21.60;65.30;;;;;;10192328;28;97374;-50
2023/08/29 10:59:43;;;;;;;;;;;21.50;65.20;;;;;;10194866;28;94438;-47
2023/08/29 11:04:45;;;;;;;;;;;21.50;65.30;;;;;;10196879;28;94543;-46
2023/08/29 11:10:13;;;;;;;;;;;21.50;65.30;;;;;;10194242;28;93382;-49
2023/08/29 11:15:15;;;;;;;;;;;21.50;65.40;;;;;;10194485;28;95242;-51
2023/08/29 11:20:17;;;;;;;;;;;21.50;65.50;;;;;;10199521;28;95058;-45
2023/08/29 11:25:20;;;;;;;;;;;21.50;65.50;;;;;;10201235;28;93625;-48
2023/08/29 11:30:22;;;;;;;;;;;21.50;65.50;;;;;;10202632;28;93555;-50
2023/08/29 11:35:39;;;;;;;;;;;21.40;65.40;;;;;;10201758;28;93758;-50
2023/08/29 11:40:41;;;;;;;;;;;21.40;65.50;;;;;;10199214;28;94802;-47
2023/08/29 11:46:03;;;;;;;;;;;21.40;65.60;;;;;;10198910;28;98634;-48
2023/08/29 11:51:06;;;;;;;;;;;21.40;65.70;;;;;;10200242;28;94090;-46
2023/08/29 11:56:10;;;;;;;;;;;21.40;65.70;;;;;;10200763;28;93743;-47
2023/08/29 12:01:12;;;;;;;;;;;21.40;65.70;;;;;;10200073;28;93917;-49
2023/08/29 12:06:14;;;;;;;;;;;21.40;65.70;;;;;;10200218;28;93874;-46
2023/08/29 12:11:16;;;;;;;;;;;21.40;65.70;;;;;;10198726;28;95798;-47
2023/08/29 12:16:18;;;;;;;;;;;21.40;65.70;;;;;;10203966;28;94435;-50
2023/08/29 12:21:20;;;;;;;;;;;21.40;65.70;;;;;;10201326;28;94099;-46
2023/08/29 12:26:22;;;;;;;;;;;21.40;65.60;;;;;;10198814;28;93453;-46
2023/08/29 12:31:23;;;;;;;;;;;21.40;65.60;;;;;;10197430;28;93393;-49
2023/08/29 12:36:25;;;;;;;;;;;21.40;65.60;;;;;;10196550;28;98147;-48
2023/08/29 12:41:27;;;;;;;;;;;21.40;65.50;;;;;;10197901;28;92836;-49
2023/08/29 12:46:30;;;;;;;;;;;21.40;65.40;;;;;;10199346;28;93802;-50
2023/08/29 12:51:32;;;;;;;;;;;21.50;65.40;;;;;;10197370;28;93978;-50
2023/08/29 12:56:34;;;;;;;;;;;21.50;65.40;;;;;;10198718;28;93507;-46
2023/08/29 13:01:36;;;;;;;;;;;21.50;65.30;;;;;;10197384;28;94343;-45
2023/08/29 13:06:37;;;;;;;;;;;21.60;65.20;;;;;;10195767;28;94776;-46
2023/08/29 13:11:39;;;;;;;;;;;21.60;65.00;;;;;;10199234;28;92645;-47
2023/08/29 13:16:41;;;;;;;;;;;21.60;64.90;;;;;;10196838;28;93410;-51
2023/08/29 13:21:43;;;;;;;;;;;21.70;65.00;;;;;;10196934;28;94429;-48
2023/08/29 13:26:44;;;;;;;;;;;21.60;64.90;;;;;;10193263;28;97095;-47
2023/08/29 13:31:46;;;;;;;;;;;21.70;64.90;;;;;;10197633;28;94512;-48
2023/08/29 13:36:48;;;;;;;;;;;21.70;64.90;;;;;;10195250;28;94092;-54
2023/08/29 13:41:50;;;;;;;;;;;21.70;64.90;;;;;;10197610;28;94213;-45
2023/08/29 13:46:52;;;;;;;;;;;21.60;64.90;;;;;;10196497;28;94437;-46
2023/08/29 13:51:53;;;;;;;;;;;21.60;64.80;;;;;;10195889;28;93618;-45
2023/08/29 13:56:59;;;;;;;;;;;21.60;64.80;;;;;;10198299;28;94325;-47
2023/08/29 14:02:01;;;;;;;;;;;21.70;64.80;;;;;;10196067;28;92758;-47
2023/08/29 14:07:03;;;;;;;;;;;21.70;64.80;;;;;;10198027;28;94417;-46
2023/08/29 14:12:05;;;;;;;;;;;21.70;64.80;;;;;;10194696;28;95469;-49
2023/08/29 14:17:07;;;;;;;;;;;21.70;64.80;;;;;;10168374;28;95833;-51
2023/08/29 14:22:09;;;;;;;;;;;21.70;64.70;;;;;;10196570;28;93997;-50
2023/08/29 14:27:11;;;;;;;;;;;21.70;64.70;;;;;;10196448;28;94458;-48
2023/08/29 14:32:12;;;;;;;;;;;21.70;64.70;;;;;;10207843;28;94420;-50
2023/08/29 14:37:14;;;;;;;;;;;21.70;64.70;;;;;;10199937;28;95132;-49
2023/08/29 14:42:16;;;;;;;;;;;21.70;64.50;;;;;;10195604;28;94331;-51
2023/08/29 14:47:17;;;;;;;;;;;21.70;64.50;;;;;;10195853;28;95006;-51
2023/08/29 14:52:21;;;;;;;;;;;21.70;64.50;;;;;;10195128;28;93571;-48
2023/08/29 14:57:23;;;;;;;;;;;21.70;64.50;;;;;;10203015;28;93427;-45
2023/08/29 15:02:25;;;;;;;;;;;21.70;64.50;;;;;;10200550;28;94620;-48
2023/08/29 15:07:27;;;;;;;;;;;21.70;64.50;;;;;;10199066;28;96305;-50
2023/08/29 15:12:29;;;;;;;;;;;21.70;64.40;;;;;;10205901;28;93474;-45
2023/08/29 15:17:31;;;;;;;;;;;21.70;64.30;;;;;;10209975;28;94074;-46
2023/08/29 15:22:32;;;;;;;;;;;21.70;64.30;;;;;;10201792;28;93472;-47
2023/08/29 15:27:34;;;;;;;;;;;21.70;64.30;;;;;;10201607;28;94190;-47
2023/08/29 15:32:36;;;;;;;;;;;21.70;64.30;;;;;;10200975;28;94174;-47
2023/08/29 15:37:38;;;;;;;;;;;21.70;64.20;;;;;;10200910;28;94450;-46
2023/08/29 15:42:40;;;;;;;;;;;21.70;64.30;;;;;;10214382;28;94714;-45
2023/08/29 15:47:42;;;;;;;;;;;21.70;64.30;;;;;;10201105;28;94788;-46
2023/08/29 15:52:44;;;;;;;;;;;21.70;64.10;;;;;;10208140;28;94113;-45
2023/08/29 15:57:46;;;;;;;;;;;21.70;64.30;;;;;;10198084;28;97058;-46
2023/08/29 16:02:48;;;;;;;;;;;21.70;64.10;;;;;;10199801;28;93362;-45
2023/08/29 16:07:50;;;;;;;;;;;21.60;64.10;;;;;;10193918;28;93182;-46
2023/08/29 16:12:51;;;;;;;;;;;21.60;64.20;;;;;;10169285;28;93491;-48
2023/08/29 16:17:53;;;;;;;;;;;21.60;64.30;;;;;;10200614;28;94434;-46
2023/08/29 16:22:55;;;;;;;;;;;21.60;64.40;;;;;;10198006;28;95372;-47
2023/08/29 16:27:59;;;;;;;;;;;21.60;64.40;;;;;;10191494;28;95261;-50
2023/08/29 16:33:01;;;;;;;;;;;21.50;64.40;;;;;;10200564;28;94048;-50
2023/08/29 16:38:03;;;;;;;;;;;21.50;64.50;;;;;;10200182;28;94575;-50
2023/08/29 16:43:06;;;;;;;;;;;21.50;64.50;;;;;;10199319;28;94084;-46
2023/08/29 16:48:08;;;;;;;;;;;21.50;64.50;;;;;;10195216;28;96410;-50
2023/08/29 16:53:11;;;;;;;;;;;21.50;64.60;;;;;;10198537;28;94776;-52
2023/08/29 16:58:12;;;;;;;;;;;21.50;64.60;;;;;;10199407;28;94549;-48
2023/08/29 17:03:14;;;;;;;;;;;21.50;64.60;;;;;;10188571;28;94402;-46
2023/08/29 17:08:16;;;;;;;;;;;21.50;64.70;;;;;;10198903;28;93455;-47
2023/08/29 17:13:18;;;;;;;;;;;21.50;64.70;;;;;;10196649;28;93864;-46
2023/08/29 17:18:20;;;;;;;;;;;21.40;64.70;;;;;;10196373;28;94746;-50
2023/08/29 17:23:22;;;;;;;;;;;21.40;65.10;;;;;;10196681;28;92724;-47
2023/08/29 17:28:27;;;;;;;;;;;21.40;64.80;;;;;;10197336;28;94406;-47
2023/08/29 17:33:28;;;;;;;;;;;21.40;64.90;;;;;;10188351;28;93473;-54
2023/08/29 17:38:30;;;;;;;;;;;21.40;64.90;;;;;;10194636;28;95839;-51
2023/08/29 17:43:32;;;;;;;;;;;21.40;64.90;;;;;;10198000;28;94844;-47
2023/08/29 17:48:34;;;;;;;;;;;21.30;64.90;;;;;;10196725;28;93408;-45
2023/08/29 17:53:36;;;;;;;;;;;21.40;65.00;;;;;;10196832;28;92506;-46
2023/08/29 17:58:38;;;;;;;;;;;21.40;64.90;;;;;;10194943;28;94705;-46
2023/08/29 18:03:40;;;;;;;;;;;21.30;64.90;;;;;;10219244;28;94635;-46
2023/08/29 18:08:42;;;;;;;;;;;21.30;64.90;;;;;;10196141;28;93445;-48
2023/08/29 18:13:44;;;;;;;;;;;21.40;65.00;;;;;;10196196;28;93934;-46
2023/08/29 18:18:46;;;;;;;;;;;21.30;64.90;;;;;;10193929;28;94026;-49
2023/08/29 18:23:48;;;;;;;;;;;21.30;64.80;;;;;;10196289;28;94552;-45
2023/08/29 18:28:50;;;;;;;;;;;21.30;64.80;;;;;;10196825;28;96748;-46
2023/08/29 18:33:52;;;;;;;;;;;21.30;64.90;;;;;;10203287;28;94426;-48
2023/08/29 18:38:55;;;;;;;;;;;21.30;65.90;;;;;;10195106;28;94471;-48
2023/08/29 18:43:58;;;;;;;;;;;21.30;64.90;;;;;;10196150;28;93472;-47
2023/08/29 18:48:59;;;;;;;;;;;21.30;64.90;;;;;;10194176;28;94440;-46
2023/08/29 18:54:01;;;;;;;;;;;21.30;64.90;;;;;;10206298;28;93451;-46
2023/08/29 18:59:03;;;;;;;;;;;21.30;64.90;;;;;;10194140;28;94571;-50
2023/08/29 19:04:06;;;;;;;;;;;21.30;64.90;;;;;;10173137;28;92585;-48
2023/08/29 19:09:08;;;;;;;;;;;21.30;64.90;;;;;;10195219;28;93668;-48
2023/08/29 19:14:10;;;;;;;;;;;21.30;65.00;;;;;;10195372;28;94425;-45
2023/08/29 19:19:11;;;;;;;;;;;21.30;64.90;;;;;;10186732;28;96861;-47
2023/08/29 19:24:13;;;;;;;;;;;21.30;64.80;;;;;;10188368;28;94443;-45
2023/08/29 19:29:16;;;;;;;;;;;21.30;64.80;;;;;;10194764;28;93321;-47
2023/08/29 19:34:18;;;;;;;;;;;21.30;64.80;;;;;;10193038;28;93863;-46
2023/08/29 19:39:22;;;;;;;;;;;21.30;64.70;;;;;;10196191;28;93714;-47
2023/08/29 19:44:27;;;;;;;;;;;21.30;64.70;;;;;;10200312;28;93589;-45
2023/08/29 19:49:35;;;;;;;;;;;21.30;64.70;;;;;;10200555;28;95396;-45
2023/08/29 19:54:37;;;;;;;;;;;21.30;64.60;;;;;;10201543;28;93690;-46
2023/08/29 19:59:39;;;;;;;;;;;21.30;64.60;;;;;;10201338;28;96816;-51
2023/08/29 20:04:41;;;;;;;;;;;21.30;64.50;;;;;;10203759;28;93265;-45
2023/08/29 20:09:43;;;;;;;;;;;21.30;64.40;;;;;;10186808;28;97069;-48
2023/08/29 20:14:45;;;;;;;;;;;21.30;64.50;;;;;;10192778;28;94358;-45
2023/08/29 20:19:46;;;;;;;;;;;21.30;64.60;;;;;;10195617;28;94431;-47
2023/08/29 20:24:48;;;;;;;;;;;21.40;64.60;;;;;;10199576;28;94625;-46
2023/08/29 20:29:51;;;;;;;;;;;21.40;64.60;;;;;;10196121;28;94389;-46
2023/08/29 20:34:53;;;;;;;;;;;21.40;64.60;;;;;;10193679;28;94733;-49
2023/08/29 20:39:55;;;;;;;;;;;21.40;64.60;;;;;;10184942;28;94319;-49
2023/08/29 20:44:57;;;;;;;;;;;21.50;64.60;;;;;;10199087;28;92636;-49
2023/08/29 20:50:00;;;;;;;;;;;21.50;64.60;;;;;;10196855;28;94435;-51
2023/08/29 20:55:04;;;;;;;;;;;21.50;64.40;;;;;;10194613;28;93781;-46
2023/08/29 21:00:06;;;;;;;;;;;21.50;64.30;;;;;;10193708;28;97846;-48
2023/08/29 21:05:09;;;;;;;;;;;21.50;64.10;;;;;;10195948;28;96497;-49
2023/08/29 21:10:10;;;;;;;;;;;21.50;64.10;;;;;;10191535;28;93831;-51
2023/08/29 21:15:12;;;;;;;;;;;21.50;64.10;;;;;;10194283;28;93477;-49
2023/08/29 21:20:14;;;;;;;;;;;21.50;64.10;;;;;;10187062;28;93536;-45
2023/08/29 21:25:15;;;;;;;;;;;21.50;65.00;;;;;;10199331;28;94782;-46
2023/08/29 21:30:18;;;;;;;;;;;21.50;63.70;;;;;;10195574;28;94599;-47
2023/08/29 21:35:21;;;;;;;;;;;21.50;63.60;;;;;;10203556;28;94016;-45
2023/08/29 21:40:23;;;;;;;;;;;21.50;63.60;;;;;;10199198;28;94416;-45
2023/08/29 21:45:27;;;;;;;;;;;21.50;63.50;;;;;;10211244;28;94499;-50
2023/08/29 21:50:28;;;;;;;;;;;21.50;63.50;;;;;;10175977;28;96899;-49
2023/08/29 21:55:33;;;;;;;;;;;21.50;63.30;;;;;;10196485;28;93098;-45
2023/08/29 22:00:35;;;;;;;;;;;21.40;63.10;;;;;;10195420;28;93763;-47
2023/08/29 22:05:37;;;;;;;;;;;21.40;63.10;;;;;;10186831;28;93543;-45
2023/08/29 22:10:39;;;;;;;;;;;21.40;63.10;;;;;;10195669;28;93416;-50
2023/08/29 22:15:41;;;;;;;;;;;21.40;63.00;;;;;;10208170;28;94554;-48
2023/08/29 22:20:43;;;;;;;;;;;21.40;62.90;;;;;;10195973;28;94289;-46
2023/08/29 22:25:44;;;;;;;;;;;21.40;63.00;;;;;;10196553;28;93429;-47
2023/08/29 22:30:47;;;;;;;;;;;21.40;62.90;;;;;;10189951;28;93778;-47
2023/08/29 22:35:49;;;;;;;;;;;21.40;62.90;;;;;;10211194;28;94257;-44
2023/08/29 22:40:50;;;;;;;;;;;21.30;62.90;;;;;;10192386;28;95813;-46
2023/08/29 22:45:55;;;;;;;;;;;21.30;62.90;;;;;;10194311;28;93739;-47
2023/08/29 22:50:57;;;;;;;;;;;21.30;62.80;;;;;;10208257;28;92804;-49
2023/08/29 22:56:02;;;;;;;;;;;21.30;62.90;;;;;;10193758;28;94494;-46
2023/08/29 23:01:05;;;;;;;;;;;21.30;62.80;;;;;;10196469;28;93655;-49
2023/08/29 23:06:07;;;;;;;;;;;21.30;62.90;;;;;;10203714;28;94652;-47
2023/08/29 23:11:08;;;;;;;;;;;21.30;62.80;;;;;;10192315;28;93464;-49
2023/08/29 23:16:11;;;;;;;;;;;21.30;62.70;;;;;;10197624;28;92724;-46
2023/08/29 23:21:12;;;;;;;;;;;21.30;62.60;;;;;;10201171;28;93771;-45
2023/08/29 23:26:16;;;;;;;;;;;21.30;62.60;;;;;;10201401;28;94409;-44
2023/08/29 23:31:18;;;;;;;;;;;21.20;62.60;;;;;;10197977;28;96823;-49
2023/08/29 23:36:21;;;;;;;;;;;21.20;62.60;;;;;;10201049;28;96037;-49
2023/08/29 23:41:22;;;;;;;;;;;21.20;62.60;;;;;;10201517;28;93829;-43
2023/08/29 23:46:24;;;;;;;;;;;21.20;62.60;;;;;;10213642;28;95738;-46
2023/08/29 23:51:26;;;;;;;;;;;21.20;62.60;;;;;;10201048;28;94263;-49
2023/08/29 23:56:28;;;;;;;;;;;21.20;62.70;;;;;;10196688;28;93491;-46
